createdAt,value
2023-05-05T00:01:47.369Z,74.69
2023-05-05T00:04:14.286Z,75.74
2023-05-05T00:06:42.614Z,80.15
2023-05-05T00:09:09.641Z,79.84
2023-05-05T00:11:36.724Z,77.60
2023-05-05T00:14:04.930Z,81.55
2023-05-05T00:16:32.308Z,79.48
2023-05-05T00:19:00.319Z,81.18
2023-05-05T00:21:30.154Z,81.24
2023-05-05T00:23:56.962Z,80.33
2023-05-05T00:26:24.106Z,80.86
2023-05-05T00:28:52.155Z,82.92
2023-05-05T00:31:19.324Z,81.39
2023-05-05T00:33:46.153Z,83.41
2023-05-05T00:36:14.836Z,81.25
2023-05-05T00:38:41.634Z,82.11
2023-05-05T00:41:08.730Z,83.12
2023-05-05T00:43:36.112Z,83.97
2023-05-05T00:46:13.341Z,84.85
2023-05-05T00:48:40.919Z,85.13
2023-05-05T00:51:09.452Z,86.13
2023-05-05T00:53:36.478Z,87.08
2023-05-05T00:56:03.731Z,88.43
2023-05-05T00:58:30.648Z,88.12
2023-05-05T01:00:57.751Z,89.45
2023-05-05T01:03:24.912Z,90.12
2023-05-05T01:06:06.173Z,91.28
2023-05-05T01:09:01.715Z,88.03
2023-05-05T01:11:34.939Z,89.80
2023-05-05T01:14:19.209Z,92.05
2023-05-05T01:17:03.148Z,92.97
2023-05-05T01:20:06.382Z,92.25
2023-05-05T01:22:49.553Z,93.17
2023-05-05T01:25:38.109Z,91.90
2023-05-05T01:28:19.493Z,94.99
2023-05-05T01:31:07.376Z,95.56
2023-05-05T01:33:46.022Z,96.39
2023-05-05T01:36:22.881Z,95.03
2023-05-05T01:38:57.014Z,96.02
2023-05-05T01:41:30.422Z,96.13
2023-05-05T01:44:00.373Z,97.32
2023-05-05T01:46:27.603Z,95.32
2023-05-05T01:48:56.995Z,94.25
2023-05-05T01:51:25.285Z,93.16
2023-05-05T01:53:53.484Z,91.96
2023-05-05T01:56:22.926Z,91.05
2023-05-05T01:58:51.163Z,90.46
2023-05-05T02:01:21.911Z,89.18
2023-05-05T02:03:51.405Z,92.46
2023-05-05T02:06:20.803Z,93.66
2023-05-05T02:08:50.112Z,93.52
2023-05-05T02:11:17.827Z,95.26
2023-05-05T02:13:46.454Z,95.40
2023-05-05T02:16:14.026Z,94.54
2023-05-05T02:18:43.121Z,95.60
2023-05-05T02:21:10.083Z,96.78
2023-05-05T02:23:39.111Z,97.74
2023-05-05T02:26:10.441Z,98.21
2023-05-05T02:28:50.505Z,97.48
2023-05-05T02:31:20.605Z,100.00
2023-05-05T02:33:51.114Z,100.00
2023-05-05T02:36:23.481Z,100.00
2023-05-05T02:39:01.190Z,100.00
2023-05-05T02:41:31.495Z,100.00
2023-05-05T02:44:00.138Z,100.00
2023-05-05T02:46:28.150Z,100.00
2023-05-05T02:48:55.419Z,100.00
2023-05-05T02:51:22.226Z,100.00
2023-05-05T02:53:49.301Z,100.00
2023-05-05T02:56:34.934Z,100.00
2023-05-05T02:59:27.004Z,100.00
2023-05-05T03:02:21.851Z,100.00
2023-05-05T03:04:54.969Z,100.00
2023-05-05T03:07:51.673Z,100.00
2023-05-05T03:10:21.932Z,100.00
2023-05-05T03:12:53.622Z,100.00
2023-05-05T03:15:26.566Z,100.00
2023-05-05T03:17:54.208Z,100.00
2023-05-05T03:20:22.407Z,100.00
2023-05-05T03:22:49.927Z,100.00
2023-05-05T03:25:17.020Z,100.00
2023-05-05T03:27:43.868Z,100.00
2023-05-05T03:30:12.120Z,100.00
2023-05-05T03:32:38.963Z,100.00
2023-05-05T03:35:06.646Z,100.00
2023-05-05T03:37:33.438Z,100.00
2023-05-05T03:40:00.635Z,100.00
2023-05-05T03:42:27.465Z,100.00
2023-05-05T03:44:57.346Z,100.00
2023-05-05T03:47:24.750Z,100.00
2023-05-05T03:49:52.520Z,100.00
2023-05-05T03:52:19.274Z,100.00
2023-05-05T03:54:46.377Z,100.00
2023-05-05T03:57:13.145Z,100.00
2023-05-05T03:59:40.436Z,100.00
2023-05-05T04:02:07.506Z,100.00
2023-05-05T04:04:34.719Z,100.00
2023-05-05T04:07:01.700Z,100.00
2023-05-05T04:09:28.802Z,100.00
2023-05-05T04:11:55.722Z,100.00
2023-05-05T04:14:22.822Z,100.00
2023-05-05T04:16:49.653Z,100.00
2023-05-05T04:19:17.586Z,100.00
2023-05-05T04:21:44.450Z,100.00
2023-05-05T04:24:11.589Z,100.00
2023-05-05T04:26:38.439Z,100.00
2023-05-05T04:29:05.579Z,100.00
2023-05-05T04:31:32.434Z,100.00
2023-05-05T04:33:59.511Z,100.00
2023-05-05T04:36:26.264Z,100.00
2023-05-05T04:38:53.474Z,100.00
2023-05-05T04:41:20.307Z,100.00
2023-05-05T04:43:47.434Z,100.00
2023-05-05T04:46:14.529Z,100.00
2023-05-05T04:48:41.657Z,100.00
2023-05-05T04:51:08.577Z,100.00
2023-05-05T04:53:36.107Z,100.00
2023-05-05T04:56:03.459Z,100.00
2023-05-05T04:58:31.671Z,100.00
2023-05-05T05:00:58.724Z,100.00
2023-05-05T05:03:26.070Z,100.00
2023-05-05T05:05:53.107Z,100.00
2023-05-05T05:08:20.495Z,100.00
2023-05-05T05:10:47.364Z,100.00
2023-05-05T05:13:14.516Z,100.00
2023-05-05T05:15:42.025Z,99.54
2023-05-05T05:18:09.112Z,100.00
2023-05-05T05:20:36.114Z,94.92
2023-05-05T05:23:04.374Z,97.91
2023-05-05T05:25:31.321Z,99.59
2023-05-05T05:28:08.973Z,93.46
2023-05-05T05:30:37.114Z,92.23
2023-05-05T05:33:04.285Z,92.31
2023-05-05T05:35:31.603Z,88.28
2023-05-05T05:37:58.700Z,89.95
2023-05-05T05:40:25.510Z,85.38
2023-05-05T05:42:52.573Z,84.81
2023-05-05T05:45:19.386Z,82.81
2023-05-05T05:47:46.554Z,83.16
2023-05-05T05:50:13.891Z,81.54
2023-05-05T05:52:40.959Z,80.61
2023-05-05T05:55:08.529Z,79.75
2023-05-05T05:57:35.621Z,77.41
2023-05-05T06:00:02.509Z,77.06
2023-05-05T06:02:29.844Z,73.92
2023-05-05T06:04:56.682Z,77.20
2023-05-05T06:07:23.807Z,71.06
2023-05-05T06:09:50.624Z,72.36
2023-05-05T06:12:17.727Z,66.99
2023-05-05T06:14:44.521Z,65.62
2023-05-05T06:17:11.642Z,66.62
2023-05-05T06:19:40.934Z,66.83
2023-05-05T06:22:08.066Z,69.33
2023-05-05T06:24:35.040Z,69.49
2023-05-05T06:27:02.491Z,67.91
2023-05-05T06:29:29.381Z,67.63
2023-05-05T06:31:56.551Z,67.65
2023-05-05T06:34:23.344Z,66.95
2023-05-05T06:36:50.459Z,65.40
2023-05-05T06:39:17.508Z,66.50
2023-05-05T06:41:44.657Z,65.23
2023-05-05T06:44:11.438Z,64.71
2023-05-05T06:46:38.545Z,64.33
2023-05-05T06:49:05.377Z,62.57
2023-05-05T06:51:32.504Z,62.92
2023-05-05T06:53:59.322Z,62.82
2023-05-05T06:56:26.414Z,65.41
2023-05-05T06:58:53.180Z,61.63
2023-05-05T07:01:20.410Z,63.15
2023-05-05T07:03:47.393Z,65.12
2023-05-05T07:06:14.559Z,64.44
2023-05-05T07:08:41.347Z,62.86
2023-05-05T07:11:08.427Z,63.34
2023-05-05T07:13:35.233Z,63.47
2023-05-05T07:16:02.316Z,60.84
2023-05-05T07:18:29.114Z,59.70
2023-05-05T07:20:56.228Z,64.02
2023-05-05T07:23:23.019Z,61.09
2023-05-05T07:25:50.697Z,62.56
2023-05-05T07:28:17.957Z,60.17
2023-05-05T07:30:45.019Z,60.66
2023-05-05T07:33:11.867Z,59.88
2023-05-05T07:35:39.045Z,58.91
2023-05-05T07:38:06.103Z,59.37
2023-05-05T07:40:34.466Z,59.50
2023-05-05T07:43:01.431Z,60.67
2023-05-05T07:45:31.496Z,61.06
2023-05-05T07:47:58.375Z,60.48
2023-05-05T07:50:26.249Z,60.04
2023-05-05T07:52:59.287Z,59.93
2023-05-05T07:55:37.834Z,59.64
2023-05-05T07:58:04.721Z,63.60
2023-05-05T08:00:31.817Z,64.61
2023-05-05T08:02:58.754Z,60.82
2023-05-05T08:05:26.065Z,57.17
2023-05-05T08:07:55.739Z,60.23
2023-05-05T08:10:23.120Z,55.75
2023-05-05T08:12:50.170Z,61.72
2023-05-05T08:15:17.346Z,59.19
2023-05-05T08:17:52.289Z,58.77
2023-05-05T08:20:20.646Z,58.66
2023-05-05T08:22:48.266Z,55.61
2023-05-05T08:25:15.438Z,56.21
2023-05-05T08:27:43.294Z,58.10
2023-05-05T08:30:11.124Z,54.40
2023-05-05T08:32:38.502Z,53.52
2023-05-05T08:35:07.008Z,53.08
2023-05-05T08:37:34.614Z,53.46
2023-05-05T08:40:01.852Z,55.04
2023-05-05T08:42:37.736Z,53.75
2023-05-05T08:45:08.134Z,51.97
2023-05-05T08:47:36.752Z,52.33
2023-05-05T08:50:05.992Z,52.23
2023-05-05T08:52:40.321Z,54.84
2023-05-05T08:55:26.826Z,52.33
2023-05-05T08:57:58.220Z,53.48
2023-05-05T09:00:27.277Z,53.07
2023-05-05T09:02:58.981Z,52.46
2023-05-05T09:05:27.070Z,50.62
2023-05-05T09:07:54.055Z,51.57
2023-05-05T09:10:21.548Z,53.86
2023-05-05T09:12:51.202Z,51.71
2023-05-05T09:15:18.770Z,53.58
2023-05-05T09:17:45.865Z,52.21
2023-05-05T09:20:14.749Z,50.81
2023-05-05T09:22:46.782Z,49.49
2023-05-05T09:25:18.290Z,49.81
2023-05-05T09:27:47.744Z,49.06
2023-05-05T09:30:24.197Z,48.72
2023-05-05T09:32:52.947Z,48.72
2023-05-05T09:35:21.719Z,45.61
2023-05-05T09:37:48.553Z,44.80
2023-05-05T09:40:18.029Z,46.32
2023-05-05T09:42:45.235Z,45.86
2023-05-05T09:45:18.480Z,46.51
2023-05-05T09:47:46.894Z,46.03
2023-05-05T09:50:16.248Z,45.40
2023-05-05T09:52:43.354Z,47.41
2023-05-05T09:55:19.722Z,46.23
2023-05-05T09:57:47.486Z,46.36
2023-05-05T10:00:15.160Z,45.30
2023-05-05T10:02:42.224Z,46.24
2023-05-05T10:05:19.180Z,43.81
2023-05-05T10:07:47.584Z,41.57
2023-05-05T10:10:16.469Z,42.02
2023-05-05T10:12:45.986Z,41.70
2023-05-05T10:15:15.491Z,40.58
2023-05-05T10:20:21.152Z,42.53
2023-05-05T10:22:56.485Z,41.21
2023-05-05T10:25:39.169Z,40.29
2023-05-05T10:28:09.823Z,42.59
2023-05-05T10:30:43.114Z,40.32
2023-05-05T10:33:30.757Z,39.44
2023-05-05T10:36:02.391Z,39.57
2023-05-05T10:38:31.188Z,40.06
2023-05-05T10:40:59.447Z,40.55
2023-05-05T10:43:29.812Z,41.28
2023-05-05T10:45:57.459Z,41.83
2023-05-05T10:48:47.902Z,40.87
2023-05-05T10:51:41.187Z,39.75
2023-05-05T10:54:19.325Z,39.96
2023-05-05T10:56:47.268Z,38.35
2023-05-05T10:59:32.853Z,38.67
2023-05-05T11:01:59.651Z,38.85
2023-05-05T11:04:29.638Z,40.10
2023-05-05T11:07:10.292Z,40.15
2023-05-05T11:09:55.364Z,37.65
2023-05-05T11:12:22.258Z,38.30
2023-05-05T11:15:24.305Z,37.21
2023-05-05T11:17:54.805Z,37.12
2023-05-05T11:20:39.409Z,39.46
2023-05-05T11:23:06.304Z,36.54
2023-05-05T11:25:41.249Z,34.43
2023-05-05T11:28:18.993Z,34.48
2023-05-05T11:30:55.285Z,34.53
2023-05-05T11:33:33.176Z,34.51
2023-05-05T11:36:00.226Z,35.77
2023-05-05T11:38:41.500Z,35.61
2023-05-05T11:41:27.287Z,34.93
2023-05-05T11:44:30.502Z,36.49
2023-05-05T11:46:57.530Z,35.80
2023-05-05T11:49:30.123Z,35.26
2023-05-05T11:51:58.366Z,35.51
2023-05-05T11:54:26.241Z,36.27
2023-05-05T11:56:55.275Z,35.00
2023-05-05T11:59:22.551Z,34.10
2023-05-05T12:01:49.676Z,34.72
2023-05-05T12:04:17.220Z,33.50
2023-05-05T12:06:46.127Z,32.13
2023-05-05T12:09:16.513Z,32.37
2023-05-05T12:11:50.651Z,32.98
2023-05-05T12:14:17.506Z,32.18
2023-05-05T12:16:58.675Z,32.69
2023-05-05T12:19:32.940Z,31.36
2023-05-05T12:22:01.367Z,32.01
2023-05-05T12:24:28.440Z,31.08
2023-05-05T12:26:55.590Z,32.01
2023-05-05T12:29:26.877Z,30.48
2023-05-05T12:31:54.196Z,30.33
2023-05-05T12:34:21.668Z,30.21
2023-05-05T12:36:49.158Z,30.83
2023-05-05T12:39:15.925Z,31.55
2023-05-05T12:41:43.379Z,32.20
2023-05-05T12:44:10.618Z,32.12
2023-05-05T12:46:48.818Z,31.10
2023-05-05T12:49:17.586Z,31.06
2023-05-05T12:51:55.360Z,31.15
2023-05-05T12:54:24.407Z,31.32
2023-05-05T12:56:51.528Z,31.51
2023-05-05T12:59:21.028Z,30.18
2023-05-05T13:01:51.101Z,29.52
2023-05-05T13:04:19.316Z,29.66
2023-05-05T13:06:48.807Z,29.24
2023-05-05T13:09:33.916Z,30.68
2023-05-05T13:12:03.110Z,30.19
2023-05-05T13:14:33.148Z,31.02
2023-05-05T13:17:00.549Z,30.95
2023-05-05T13:19:27.770Z,32.36
2023-05-05T13:21:56.610Z,30.74
2023-05-05T13:24:34.918Z,30.47
2023-05-05T13:27:09.823Z,31.87
2023-05-05T13:29:36.793Z,31.56
2023-05-05T13:32:04.320Z,32.76
2023-05-05T13:34:31.166Z,32.99
2023-05-05T13:36:58.244Z,33.42
2023-05-05T13:39:25.241Z,31.54
2023-05-05T13:41:52.409Z,31.32
2023-05-05T13:44:19.191Z,29.93
2023-05-05T13:46:46.475Z,30.95
2023-05-05T13:49:13.422Z,32.35
2023-05-05T13:51:40.546Z,28.53
2023-05-05T13:54:07.807Z,27.92
2023-05-05T13:56:34.954Z,27.36
2023-05-05T13:59:02.497Z,28.94
2023-05-05T14:01:30.314Z,29.35
2023-05-05T14:03:58.098Z,28.74
2023-05-05T14:06:26.089Z,28.22
2023-05-05T14:08:53.127Z,28.36
2023-05-05T14:11:21.020Z,27.26
2023-05-05T14:13:48.294Z,28.01
2023-05-05T14:16:15.638Z,27.99
2023-05-05T14:18:42.593Z,28.06
2023-05-05T14:21:09.799Z,30.33
2023-05-05T14:23:36.642Z,29.82
2023-05-05T14:26:03.838Z,28.72
2023-05-05T14:28:30.784Z,27.97
2023-05-05T14:30:58.026Z,26.59
2023-05-05T14:33:24.857Z,26.89
2023-05-05T14:35:52.050Z,26.24
2023-05-05T14:38:18.953Z,25.23
2023-05-05T14:40:46.082Z,24.48
2023-05-05T14:43:12.877Z,25.79
2023-05-05T14:45:40.034Z,24.89
2023-05-05T14:48:07.147Z,23.94
2023-05-05T14:50:34.221Z,22.86
2023-05-05T14:53:01.104Z,23.24
2023-05-05T14:55:28.291Z,23.50
2023-05-05T14:57:55.453Z,22.59
2023-05-05T15:00:22.640Z,20.95
2023-05-05T15:02:49.485Z,20.78
2023-05-05T15:05:16.705Z,20.07
2023-05-05T15:07:43.613Z,19.94
2023-05-05T15:10:11.106Z,20.80
2023-05-05T15:12:37.950Z,18.73
2023-05-05T15:15:05.530Z,19.31
2023-05-05T15:17:32.774Z,18.56
2023-05-05T15:19:59.922Z,19.13
2023-05-05T15:22:26.778Z,18.92
2023-05-05T15:24:53.835Z,19.71
2023-05-05T15:27:20.613Z,20.57
2023-05-05T15:29:48.524Z,21.48
2023-05-05T15:32:15.363Z,21.55
2023-05-05T15:34:44.826Z,22.00
2023-05-05T15:37:11.772Z,22.88
2023-05-05T15:39:38.823Z,21.39
2023-05-05T15:42:05.694Z,22.43
2023-05-05T15:44:32.740Z,24.11
2023-05-05T15:47:02.268Z,24.35
2023-05-05T15:49:29.322Z,25.71
2023-05-05T15:51:56.332Z,27.43
2023-05-05T15:54:23.586Z,28.77
2023-05-05T15:56:50.388Z,29.09
2023-05-05T15:59:18.626Z,30.51
2023-05-05T16:01:46.759Z,31.78
2023-05-05T16:04:14.150Z,31.72
2023-05-05T16:06:41.081Z,32.56
2023-05-05T16:09:08.217Z,33.34
2023-05-05T16:11:35.450Z,34.77
2023-05-05T16:14:05.703Z,34.01
2023-05-05T16:16:32.794Z,35.01
2023-05-05T16:18:59.842Z,35.35
2023-05-05T16:21:27.531Z,34.46
2023-05-05T16:23:56.025Z,34.03
2023-05-05T16:26:22.849Z,34.85
2023-05-05T16:28:49.932Z,34.98
2023-05-05T16:31:17.257Z,34.37
2023-05-05T16:33:44.600Z,35.82
2023-05-05T16:36:12.521Z,35.61
2023-05-05T16:38:43.760Z,34.73
2023-05-05T16:41:11.164Z,34.70
2023-05-05T16:43:38.281Z,32.50
2023-05-05T16:46:06.109Z,30.19
2023-05-05T16:48:33.233Z,29.72
2023-05-05T16:51:00.122Z,28.86
2023-05-05T16:53:27.265Z,29.56
2023-05-05T16:55:54.200Z,29.91
2023-05-05T16:58:22.810Z,28.77
2023-05-05T17:00:50.398Z,27.63
2023-05-05T17:03:20.604Z,28.17
2023-05-05T17:05:50.278Z,27.54
2023-05-05T17:08:17.620Z,27.54
2023-05-05T17:10:45.527Z,27.64
2023-05-05T17:13:13.878Z,28.17
2023-05-05T17:15:41.880Z,29.15
2023-05-05T17:18:09.204Z,30.82
2023-05-05T17:20:36.423Z,31.83
2023-05-05T17:23:03.761Z,33.27
2023-05-05T17:25:31.286Z,34.11
2023-05-05T17:27:58.390Z,35.10
2023-05-05T17:30:25.337Z,35.14
2023-05-05T17:32:52.662Z,36.72
2023-05-05T17:35:21.289Z,38.27
2023-05-05T17:37:48.417Z,39.53
2023-05-05T17:40:15.315Z,37.13
2023-05-05T17:42:42.360Z,38.84
2023-05-05T17:45:10.030Z,41.16
2023-05-05T17:47:37.462Z,41.33
2023-05-05T17:50:04.667Z,39.29
2023-05-05T17:52:31.738Z,42.14
2023-05-05T17:54:58.615Z,43.60
2023-05-05T17:57:25.775Z,40.48
2023-05-05T17:59:53.682Z,42.44
2023-05-05T18:02:21.430Z,44.39
2023-05-05T18:04:48.303Z,46.78
2023-05-05T18:07:15.426Z,45.13
2023-05-05T18:09:42.510Z,44.46
2023-05-05T18:12:09.643Z,47.05
2023-05-05T18:14:36.797Z,46.52
2023-05-05T18:17:04.783Z,46.55
2023-05-05T18:19:31.821Z,42.44
2023-05-05T18:21:59.145Z,45.04
2023-05-05T18:24:26.156Z,45.02
2023-05-05T18:26:53.395Z,46.72
2023-05-05T18:29:21.873Z,48.35
2023-05-05T18:31:54.818Z,49.42
2023-05-05T18:34:21.899Z,48.00
2023-05-05T18:36:50.742Z,46.03
2023-05-05T18:39:17.929Z,47.92
2023-05-05T18:41:45.186Z,46.09
2023-05-05T18:44:12.040Z,48.67
2023-05-05T18:46:39.213Z,50.13
2023-05-05T18:49:06.288Z,50.44
2023-05-05T18:51:33.381Z,51.98
2023-05-05T18:54:01.040Z,52.36
2023-05-05T18:56:31.242Z,54.11
2023-05-05T18:58:58.125Z,50.18
2023-05-05T19:01:25.228Z,55.38
2023-05-05T19:03:52.102Z,55.89
2023-05-05T19:06:19.268Z,56.52
2023-05-05T19:08:46.592Z,57.59
2023-05-05T19:11:15.187Z,59.99
2023-05-05T19:13:42.556Z,59.08
2023-05-05T19:16:12.073Z,59.37
2023-05-05T19:18:39.649Z,59.33
2023-05-05T19:21:06.970Z,61.12
2023-05-05T19:23:35.992Z,62.13
2023-05-05T19:26:06.006Z,63.17
2023-05-05T19:28:33.001Z,64.13
2023-05-05T19:31:00.195Z,64.05
2023-05-05T19:33:27.146Z,64.13
2023-05-05T19:35:54.233Z,66.44
2023-05-05T19:38:21.055Z,67.60
2023-05-05T19:40:48.182Z,67.46
2023-05-05T19:43:15.131Z,68.12
2023-05-05T19:45:42.262Z,68.89
2023-05-05T19:48:09.123Z,70.08
2023-05-05T19:50:36.277Z,69.10
2023-05-05T19:53:03.815Z,68.79
2023-05-05T19:55:32.128Z,71.26
2023-05-05T19:57:58.930Z,72.76
2023-05-05T20:00:26.039Z,71.97
2023-05-05T20:02:52.928Z,72.06
2023-05-05T20:05:20.065Z,71.45
2023-05-05T20:07:47.027Z,72.24
2023-05-05T20:10:14.309Z,73.44
2023-05-05T20:12:47.630Z,74.07
2023-05-05T20:15:19.303Z,75.09
2023-05-05T20:17:49.548Z,74.81
2023-05-05T20:20:18.828Z,76.94
2023-05-05T20:22:46.886Z,76.36
2023-05-05T20:25:16.181Z,76.37
2023-05-05T20:27:43.377Z,77.65
2023-05-05T20:30:11.980Z,77.58
2023-05-05T20:32:39.051Z,77.18
2023-05-05T20:35:07.324Z,79.19
2023-05-05T20:37:34.535Z,78.35
2023-05-05T20:40:01.802Z,78.83
2023-05-05T20:42:29.654Z,79.06
2023-05-05T20:44:57.122Z,80.17
2023-05-05T20:47:24.408Z,80.13
2023-05-05T20:49:52.508Z,80.57
2023-05-05T20:52:19.633Z,82.04
2023-05-05T20:54:46.792Z,82.53
2023-05-05T20:57:13.684Z,81.90
2023-05-05T20:59:40.869Z,83.78
2023-05-05T21:02:07.990Z,83.89
2023-05-05T21:04:35.336Z,84.00
2023-05-05T21:07:02.925Z,86.37
2023-05-05T21:09:30.056Z,85.65
2023-05-05T21:11:57.086Z,87.42
2023-05-05T21:14:24.357Z,89.77
2023-05-05T21:16:51.288Z,87.02
2023-05-05T21:19:18.444Z,88.28
2023-05-05T21:21:45.612Z,87.87
2023-05-05T21:24:15.476Z,89.30
2023-05-05T21:26:44.312Z,89.49
2023-05-05T21:29:12.093Z,89.13
2023-05-05T21:31:39.061Z,91.39
2023-05-05T21:34:06.614Z,92.95
2023-05-05T21:36:33.998Z,92.64
2023-05-05T21:39:01.301Z,92.32
2023-05-05T21:41:28.874Z,92.98
2023-05-05T21:43:59.585Z,91.36
2023-05-05T21:46:26.817Z,91.37
2023-05-05T21:48:54.235Z,93.43
2023-05-05T21:51:23.305Z,94.12
2023-05-05T21:53:50.559Z,94.44
2023-05-05T21:56:17.453Z,94.82
2023-05-05T21:58:44.576Z,95.97
2023-05-05T22:01:12.163Z,96.44
2023-05-05T22:03:39.357Z,96.53
2023-05-05T22:06:06.458Z,96.16
2023-05-05T22:08:33.590Z,96.09
2023-05-05T22:11:00.607Z,96.97
2023-05-05T22:13:27.682Z,96.94
2023-05-05T22:15:54.465Z,97.92
2023-05-05T22:18:21.521Z,98.69
2023-05-05T22:20:48.289Z,98.35
2023-05-05T22:23:16.472Z,99.45
2023-05-05T22:25:44.417Z,98.17
2023-05-05T22:28:11.710Z,98.90
2023-05-05T22:30:38.567Z,99.07
2023-05-05T22:33:05.813Z,99.33
2023-05-05T22:35:37.410Z,98.57
2023-05-05T22:38:05.084Z,100.00
2023-05-05T22:40:32.192Z,100.00
2023-05-05T22:42:59.585Z,100.00
2023-05-05T22:45:27.231Z,100.00
2023-05-05T22:47:54.530Z,100.00
2023-05-05T22:50:21.418Z,100.00
2023-05-05T22:52:48.499Z,100.00
2023-05-05T22:55:15.452Z,100.00
2023-05-05T22:57:42.572Z,100.00
2023-05-05T23:00:10.729Z,100.00
2023-05-05T23:02:38.108Z,100.00
2023-05-05T23:05:06.040Z,100.00
2023-05-05T23:07:33.168Z,100.00
2023-05-05T23:09:59.940Z,100.00
2023-05-05T23:12:27.055Z,100.00
2023-05-05T23:14:53.834Z,100.00
2023-05-05T23:17:21.061Z,100.00
2023-05-05T23:19:50.106Z,100.00
2023-05-05T23:22:17.210Z,100.00
2023-05-05T23:24:44.095Z,100.00
2023-05-05T23:27:11.173Z,100.00
2023-05-05T23:29:37.962Z,100.00
2023-05-05T23:32:08.397Z,100.00
2023-05-05T23:34:35.216Z,100.00
2023-05-05T23:37:03.451Z,100.00
2023-05-05T23:39:34.221Z,100.00
2023-05-05T23:42:02.322Z,100.00
2023-05-05T23:44:29.179Z,100.00
2023-05-05T23:46:56.278Z,100.00
2023-05-05T23:49:24.973Z,100.00
2023-05-05T23:51:52.686Z,100.00
2023-05-05T23:54:19.496Z,100.00
2023-05-05T23:56:47.822Z,100.00
2023-05-05T23:59:14.658Z,100.00
